Time;durP1;ratioP1;P1;durP2;ratioP2;P2;SDS_P1;SDS_P2;PMS_P1;PMS_P2;Temp;Humidity;BMP_temperature;BMP_pressure;BME280_temperature;BME280_humidity;BME280_pressure;Samples;Min_cycle;Max_cycle;Signal;HPM_P1;HPM_P2
2022/11/30 00:01:47;;;;;;;72.60;37.20;;;;;;;-2.03;100.00;97415.44;105362;1301;22467;-77
2022/11/30 00:04:18;;;;;;;72.00;35.70;;;;;;;-2.01;100.00;97415.73;105318;1298;25368;-77
2022/11/30 00:06:55;;;;;;;64.20;35.60;;;;;;;-1.97;100.00;97412.30;105363;1303;25261;-77
2022/11/30 00:09:26;;;;;;;79.60;37.00;;;;;;;-1.92;100.00;97413.77;105318;1290;22560;-77
2022/11/30 00:11:57;;;;;;;65.80;34.20;;;;;;;-1.91;100.00;97419.34;105354;1298;22440;-77
2022/11/30 00:14:29;;;;;;;64.00;34.10;;;;;;;-1.92;100.00;97423.32;105379;1303;23135;-77
2022/11/30 00:17:00;;;;;;;70.50;36.30;;;;;;;-1.96;100.00;97422.93;105346;1297;22533;-77
2022/11/30 00:19:31;;;;;;;68.10;34.30;;;;;;;-1.98;100.00;97422.58;105303;1296;25105;-77
2022/11/30 00:22:02;;;;;;;68.90;36.40;;;;;;;-1.99;100.00;97422.69;105483;1289;22480;-77
2022/11/30 00:24:33;;;;;;;74.60;37.00;;;;;;;-2.03;100.00;97424.55;105378;1289;22528;-77
2022/11/30 00:27:05;;;;;;;78.10;38.30;;;;;;;-2.05;100.00;97424.88;105351;1305;24454;-77
2022/11/30 00:29:36;;;;;;;74.90;36.80;;;;;;;-2.06;100.00;97424.61;105328;1298;23143;-77
2022/11/30 00:32:07;;;;;;;70.20;36.50;;;;;;;-2.08;100.00;97427.29;105318;1304;24367;-77
2022/11/30 00:34:38;;;;;;;66.60;36.70;;;;;;;-2.12;100.00;97423.52;105395;1296;22478;-77
2022/11/30 00:37:10;;;;;;;71.70;35.90;;;;;;;-2.13;100.00;97426.89;105470;1304;24257;-77
2022/11/30 00:39:41;;;;;;;67.50;34.40;;;;;;;-2.13;100.00;97422.93;105336;1290;22473;-77
2022/11/30 00:42:13;;;;;;;73.40;38.30;;;;;;;-2.06;100.00;97420.33;105349;1290;22481;-77
2022/11/30 00:44:44;;;;;;;66.50;35.10;;;;;;;-2.04;100.00;97425.35;105371;1305;22493;-77
2022/11/30 00:47:15;;;;;;;61.50;32.50;;;;;;;-2.08;100.00;97428.30;105371;1291;22569;-77
2022/11/30 00:49:46;;;;;;;70.70;35.60;;;;;;;-2.16;100.00;97426.29;105309;1290;22470;-77
2022/11/30 00:52:17;;;;;;;60.70;34.90;;;;;;;-2.21;100.00;97426.02;105327;1290;22522;-77
2022/11/30 00:54:48;;;;;;;59.80;32.20;;;;;;;-2.23;100.00;97426.77;105373;1305;22509;-77
2022/11/30 00:57:22;;;;;;;59.40;30.50;;;;;;;-2.26;100.00;97427.58;105338;1296;22414;-77
2022/11/30 00:59:53;;;;;;;57.30;30.00;;;;;;;-2.29;100.00;97427.81;105335;1296;23064;-77
2022/11/30 01:02:24;;;;;;;54.60;29.80;;;;;;;-2.32;100.00;97427.84;105489;1297;25263;-77
2022/11/30 01:04:55;;;;;;;59.20;30.70;;;;;;;-2.33;100.00;97427.59;105379;1305;22689;-77
2022/11/30 01:07:27;;;;;;;56.80;27.90;;;;;;;-2.32;100.00;97427.45;105345;1287;24487;-77
2022/11/30 01:09:58;;;;;;;57.30;29.80;;;;;;;-2.35;100.00;97429.59;105311;1305;22485;-77
2022/11/30 01:12:31;;;;;;;48.40;27.20;;;;;;;-2.41;100.00;97426.86;105326;1291;24399;-77
2022/11/30 01:15:03;;;;;;;52.20;28.10;;;;;;;-2.44;100.00;97429.70;105375;1291;22453;-77
2022/11/30 01:17:35;;;;;;;53.60;27.30;;;;;;;-2.47;100.00;97424.95;105366;1296;22471;-77
2022/11/30 01:20:08;;;;;;;50.30;28.20;;;;;;;-2.52;100.00;97428.86;105290;1305;22459;-77
2022/11/30 01:22:39;;;;;;;53.90;28.30;;;;;;;-2.55;100.00;97426.59;105367;1304;22498;-77
2022/11/30 01:25:11;;;;;;;58.40;29.50;;;;;;;-2.58;100.00;97425.64;105345;1292;22631;-77
2022/11/30 01:27:42;;;;;;;55.80;29.70;;;;;;;-2.59;100.00;97421.35;105343;1291;25446;-77
2022/11/30 01:30:14;;;;;;;54.40;28.80;;;;;;;-2.60;100.00;97419.22;105327;1296;24994;-77
2022/11/30 01:32:46;;;;;;;58.40;29.90;;;;;;;-2.63;100.00;97423.05;105383;1297;22464;-77
2022/11/30 01:35:17;;;;;;;54.50;28.60;;;;;;;-2.67;100.00;97421.14;105346;1305;22543;-77
2022/11/30 01:37:48;;;;;;;54.60;26.90;;;;;;;-2.70;100.00;97426.76;105453;1293;22951;-77
2022/11/30 01:40:21;;;;;;;56.30;28.80;;;;;;;-2.75;100.00;97424.73;105405;1305;22563;-77
2022/11/30 01:42:52;;;;;;;53.10;28.00;;;;;;;-2.78;100.00;97430.79;105370;1305;22470;-77
2022/11/30 01:45:24;;;;;;;56.40;28.50;;;;;;;-2.79;100.00;97431.77;105403;1304;22432;-77
2022/11/30 01:47:57;;;;;;;57.20;28.70;;;;;;;-2.78;100.00;97430.51;105385;1304;25418;-77
2022/11/30 01:50:32;;;;;;;49.70;27.80;;;;;;;-2.78;100.00;97432.06;105341;1301;22638;-77
2022/11/30 01:53:08;;;;;;;60.10;29.60;;;;;;;-2.80;100.00;97430.55;104527;1304;1182892;-77
2022/11/30 01:55:43;;;;;;;53.10;28.50;;;;;;;-2.78;100.00;97430.27;105344;1304;22482;-77
2022/11/30 01:58:20;;;;;;;54.10;29.30;;;;;;;-2.73;100.00;97433.86;105361;1294;22470;-77
2022/11/30 02:00:51;;;;;;;56.50;27.90;;;;;;;-2.70;100.00;97438.17;105340;1305;22624;-77
2022/11/30 02:03:31;;;;;;;60.20;29.60;;;;;;;-2.72;100.00;97442.26;105364;1302;22476;-77
2022/11/30 02:06:03;;;;;;;51.60;28.00;;;;;;;-2.73;100.00;97451.98;105487;1304;23885;-77
2022/11/30 02:08:34;;;;;;;56.20;28.10;;;;;;;-2.73;100.00;97453.38;105415;1294;23339;-77
2022/11/30 02:11:11;;;;;;;50.00;30.00;;;;;;;-2.76;100.00;97455.81;105379;1305;22610;-77
2022/11/30 02:14:00;;;;;;;55.80;30.30;;;;;;;-2.79;100.00;97456.56;105336;1296;22607;-77
2022/11/30 02:16:40;;;;;;;52.80;27.40;;;;;;;-2.77;100.00;97458.15;105356;1305;22457;-77
2022/11/30 02:19:39;;;;;;;51.30;29.20;;;;;;;-2.69;100.00;97459.19;105286;1305;23464;-77
2022/11/30 02:22:23;;;;;;;46.90;27.30;;;;;;;-2.60;100.00;97463.06;105366;1304;25356;-77
2022/11/30 02:25:08;;;;;;;52.80;27.10;;;;;;;-2.61;100.00;97463.36;105384;1303;22461;-77
2022/11/30 02:27:56;;;;;;;58.50;30.50;;;;;;;-2.70;100.00;97461.24;105353;1294;22600;-77
2022/11/30 02:30:30;;;;;;;52.00;26.60;;;;;;;-2.80;100.00;97459.58;105319;1305;24181;-77
2022/11/30 02:33:07;;;;;;;54.20;28.70;;;;;;;-2.80;100.00;97462.05;105477;1304;22471;-77
2022/11/30 02:35:43;;;;;;;51.80;28.20;;;;;;;-2.77;100.00;97461.67;105350;1305;22469;-77
2022/11/30 02:38:15;;;;;;;54.30;30.20;;;;;;;-2.75;100.00;97462.13;105416;1306;23758;-77
2022/11/30 02:40:46;;;;;;;57.90;29.60;;;;;;;-2.79;100.00;97463.17;105371;1291;22486;-77
2022/11/30 02:43:22;;;;;;;54.00;28.50;;;;;;;-2.86;100.00;97463.40;105413;1290;24365;-77
2022/11/30 02:46:01;;;;;;;54.40;30.40;;;;;;;-2.91;100.00;97463.92;105511;1303;22476;-77
2022/11/30 02:48:41;;;;;;;51.20;28.00;;;;;;;-2.92;100.00;97466.85;105320;1290;22453;-74
2022/11/30 02:51:16;;;;;;;48.80;27.30;;;;;;;-2.94;100.00;97465.55;105315;1297;25295;-74
2022/11/30 02:53:48;;;;;;;51.80;28.30;;;;;;;-2.97;100.00;97463.64;105363;1304;22507;-76
2022/11/30 02:56:22;;;;;;;56.10;29.80;;;;;;;-2.99;100.00;97465.20;105424;1293;24833;-77
2022/11/30 02:58:53;;;;;;;57.70;30.60;;;;;;;-3.01;100.00;97468.29;105307;1305;25643;-77
2022/11/30 03:01:24;;;;;;;59.20;30.60;;;;;;;-3.00;100.00;97468.02;105382;1305;22689;-77
2022/11/30 03:03:55;;;;;;;51.50;27.50;;;;;;;-2.97;100.00;97467.05;105399;1304;25383;-77
2022/11/30 03:06:26;;;;;;;55.00;28.00;;;;;;;-2.96;100.00;97469.36;105380;1303;22472;-77
2022/11/30 03:08:58;;;;;;;51.00;26.70;;;;;;;-2.99;100.00;97465.61;105465;1294;22467;-77
2022/11/30 03:11:29;;;;;;;52.30;26.00;;;;;;;-3.01;100.00;97466.80;105462;1296;22454;-77
2022/11/30 03:14:01;;;;;;;50.70;26.30;;;;;;;-3.05;100.00;97469.14;105355;1305;22482;-77
2022/11/30 03:16:32;;;;;;;52.00;24.50;;;;;;;-3.08;100.00;97472.08;105320;1301;22785;-77
2022/11/30 03:19:05;;;;;;;49.60;26.30;;;;;;;-3.10;100.00;97477.48;105341;1304;22441;-77
2022/11/30 03:21:38;;;;;;;51.40;26.30;;;;;;;-3.15;100.00;97473.72;105379;1288;22473;-77
2022/11/30 03:24:10;;;;;;;53.50;28.20;;;;;;;-3.17;100.00;97474.29;105357;1305;22473;-77
2022/11/30 03:26:41;;;;;;;52.30;25.80;;;;;;;-3.15;100.00;97477.70;105357;1305;22512;-77
2022/11/30 03:29:12;;;;;;;52.80;26.10;;;;;;;-3.15;100.00;97477.91;105308;1304;25271;-77
2022/11/30 03:31:43;;;;;;;47.70;23.70;;;;;;;-3.19;100.00;97482.98;105366;1306;22464;-77
2022/11/30 03:34:17;;;;;;;46.10;24.30;;;;;;;-3.21;100.00;97480.99;105339;1305;22528;-77
2022/11/30 03:36:48;;;;;;;48.00;24.80;;;;;;;-3.23;100.00;97482.78;105446;1284;24388;-77
2022/11/30 03:39:19;;;;;;;51.60;25.20;;;;;;;-3.26;100.00;97489.34;105303;1287;23243;-77
2022/11/30 03:41:50;;;;;;;50.10;25.50;;;;;;;-3.29;100.00;97488.77;105347;1293;22539;-77
2022/11/30 03:44:21;;;;;;;49.80;26.90;;;;;;;-3.30;100.00;97486.27;105331;1287;24070;-77
2022/11/30 03:46:53;;;;;;;48.70;26.20;;;;;;;-3.25;100.00;97487.61;105371;1293;22528;-77
2022/11/30 03:49:27;;;;;;;52.40;25.80;;;;;;;-3.17;100.00;97485.41;105339;1304;25933;-77
2022/11/30 03:51:58;;;;;;;48.60;26.20;;;;;;;-3.08;100.00;97489.22;105461;1309;22510;-77
2022/11/30 03:54:32;;;;;;;47.30;22.50;;;;;;;-3.03;100.00;97486.50;105377;1297;22588;-77
2022/11/30 03:57:04;;;;;;;41.00;23.30;;;;;;;-3.05;100.00;97491.73;105349;1299;22479;-77
2022/11/30 03:59:37;;;;;;;47.50;25.50;;;;;;;-3.08;100.00;97490.88;105406;1296;25235;-77
2022/11/30 04:02:08;;;;;;;49.00;24.70;;;;;;;-3.10;100.00;97490.55;105427;1296;25964;-77
2022/11/30 04:04:42;;;;;;;51.20;27.10;;;;;;;-3.09;100.00;97489.29;105388;1309;24261;-77
2022/11/30 04:07:13;;;;;;;51.80;27.50;;;;;;;-3.05;100.00;97486.89;105456;1308;22713;-77
2022/11/30 04:09:45;;;;;;;49.90;25.00;;;;;;;-3.00;100.00;97491.95;105319;1310;22469;-77
2022/11/30 04:12:16;;;;;;;45.30;24.40;;;;;;;-3.04;100.00;97491.27;105372;1303;22502;-77
2022/11/30 04:14:49;;;;;;;50.10;26.00;;;;;;;-3.13;100.00;97492.18;105340;1304;23836;-77
2022/11/30 04:17:20;;;;;;;44.30;23.30;;;;;;;-3.12;100.00;97489.73;105339;1306;22475;-76
2022/11/30 04:19:51;;;;;;;49.90;25.00;;;;;;;-3.08;100.00;97490.23;105323;1291;23825;-77
2022/11/30 04:22:23;;;;;;;49.40;24.70;;;;;;;-3.07;100.00;97491.29;105356;1306;22550;-77
2022/11/30 04:24:59;;;;;;;47.40;24.40;;;;;;;-3.05;100.00;97490.89;105383;1300;22480;-77
2022/11/30 04:27:31;;;;;;;48.90;25.20;;;;;;;-3.11;100.00;97498.98;105376;1304;22483;-77
2022/11/30 04:30:02;;;;;;;46.50;24.00;;;;;;;-3.17;100.00;97497.98;105434;1292;22443;-77
2022/11/30 04:32:33;;;;;;;44.90;22.90;;;;;;;-3.20;100.00;97500.73;105368;1287;24901;-77
2022/11/30 04:35:05;;;;;;;43.90;23.60;;;;;;;-3.25;100.00;97503.04;105335;1306;22514;-77
2022/11/30 04:37:36;;;;;;;46.80;24.40;;;;;;;-3.28;100.00;97506.48;105420;1309;22559;-77
2022/11/30 04:40:10;;;;;;;47.40;23.90;;;;;;;-3.31;100.00;97505.52;105427;1296;22501;-76
2022/11/30 04:42:41;;;;;;;46.00;24.30;;;;;;;-3.29;100.00;97505.88;105429;1295;24328;-77
2022/11/30 04:45:14;;;;;;;47.60;25.40;;;;;;;-3.22;100.00;97506.14;105453;1280;22485;-77
2022/11/30 04:47:47;;;;;;;45.00;24.80;;;;;;;-3.15;100.00;97506.55;105393;1309;22441;-77
2022/11/30 04:50:19;;;;;;;52.50;26.90;;;;;;;-3.09;100.00;97501.25;105442;1304;22479;-77
2022/11/30 04:52:51;;;;;;;47.80;25.30;;;;;;;-3.02;100.00;97501.47;105360;1306;24646;-76
2022/11/30 04:55:22;;;;;;;44.10;22.70;;;;;;;-2.96;100.00;97502.38;105370;1305;23003;-77
2022/11/30 04:57:53;;;;;;;51.10;26.80;;;;;;;-3.01;100.00;97503.80;105395;1301;22477;-76
2022/11/30 05:00:25;;;;;;;42.60;23.80;;;;;;;-3.13;100.00;97510.49;105353;1296;23701;-77
2022/11/30 05:02:59;;;;;;;40.50;23.00;;;;;;;-3.17;100.00;97509.71;105398;1296;22469;-77
2022/11/30 05:05:31;;;;;;;42.20;22.10;;;;;;;-3.19;100.00;97511.16;105486;1304;22443;-77
2022/11/30 05:08:03;;;;;;;47.00;24.30;;;;;;;-3.19;100.00;97516.47;105508;1305;22624;-77
2022/11/30 05:10:35;;;;;;;43.90;24.30;;;;;;;-3.22;100.00;97514.97;105415;1305;22480;-77
2022/11/30 05:13:06;;;;;;;43.80;24.10;;;;;;;-3.23;100.00;97515.77;105417;1302;22462;-77
2022/11/30 05:15:37;;;;;;;52.10;25.00;;;;;;;-3.27;100.00;97508.39;105370;1305;22474;-77
2022/11/30 05:18:09;;;;;;;49.00;25.90;;;;;;;-3.26;100.00;97512.63;105354;1291;22509;-77
2022/11/30 05:20:40;;;;;;;48.30;24.50;;;;;;;-3.25;100.00;97516.97;105342;1302;23234;-76
2022/11/30 05:23:11;;;;;;;48.90;26.60;;;;;;;-3.22;100.00;97513.22;105342;1280;24246;-77
2022/11/30 05:25:43;;;;;;;54.40;27.30;;;;;;;-3.14;100.00;97516.63;105340;1293;22482;-77
2022/11/30 05:28:15;;;;;;;50.30;26.60;;;;;;;-3.10;100.00;97516.04;105341;1302;24259;-77
2022/11/30 05:30:46;;;;;;;52.50;28.60;;;;;;;-3.05;100.00;97515.30;105354;1303;25407;-77
2022/11/30 05:33:17;;;;;;;60.10;31.40;;;;;;;-2.96;100.00;97517.91;105388;1296;22466;-77
2022/11/30 05:35:49;;;;;;;54.00;26.70;;;;;;;-2.88;100.00;97521.05;105367;1290;22472;-77
2022/11/30 05:38:21;;;;;;;47.00;24.00;;;;;;;-2.86;100.00;97522.65;105421;1304;25302;-77
2022/11/30 05:40:59;;;;;;;57.50;29.90;;;;;;;-2.90;100.00;97516.73;105374;1304;25369;-77
2022/11/30 05:43:31;;;;;;;55.90;29.00;;;;;;;-2.90;100.00;97512.79;105407;1297;22502;-77
2022/11/30 05:46:04;;;;;;;53.90;27.90;;;;;;;-2.90;100.00;97511.80;105472;1304;22500;-77
2022/11/30 05:48:35;;;;;;;54.60;28.30;;;;;;;-2.93;100.00;97515.58;105402;1301;22901;-77
2022/11/30 05:51:12;;;;;;;51.30;27.50;;;;;;;-2.93;100.00;97515.58;105543;1304;22602;-77
2022/11/30 05:53:44;;;;;;;56.90;28.00;;;;;;;-2.95;100.00;97516.77;105428;1284;22503;-77
2022/11/30 05:56:19;;;;;;;54.00;27.40;;;;;;;-2.96;100.00;97516.38;105385;1296;22576;-77
2022/11/30 05:58:51;;;;;;;58.80;27.90;;;;;;;-2.97;100.00;97516.84;105340;1305;22606;-77
2022/11/30 06:01:23;;;;;;;55.30;27.00;;;;;;;-3.02;100.00;97516.67;105317;1288;22421;-77
2022/11/30 06:03:55;;;;;;;56.80;29.20;;;;;;;-3.06;100.00;97520.92;105473;1290;22437;-77
2022/11/30 06:06:26;;;;;;;51.50;26.30;;;;;;;-3.06;100.00;97524.94;105365;1294;22472;-77
2022/11/30 06:08:59;;;;;;;58.30;28.20;;;;;;;-3.06;100.00;97521.79;105302;1284;23260;-77
2022/11/30 06:11:30;;;;;;;52.40;25.50;;;;;;;-3.09;100.00;97526.67;105368;1304;22621;-77
2022/11/30 06:14:01;;;;;;;56.70;28.40;;;;;;;-3.18;100.00;97527.65;105392;1289;22469;-77
2022/11/30 06:16:38;;;;;;;52.00;27.70;;;;;;;-3.22;100.00;97530.89;105335;1290;22448;-77
2022/11/30 06:19:12;;;;;;;54.00;26.80;;;;;;;-3.20;100.00;97531.64;105326;1296;22453;-77
2022/11/30 06:21:43;;;;;;;49.50;25.90;;;;;;;-3.20;100.00;97536.86;105356;1303;22463;-77
2022/11/30 06:24:15;;;;;;;50.60;26.40;;;;;;;-3.18;100.00;97529.89;105387;1288;24239;-77
2022/11/30 06:26:47;;;;;;;55.30;26.80;;;;;;;-3.11;100.00;97536.36;105394;1288;23015;-77
2022/11/30 06:29:18;;;;;;;45.30;24.20;;;;;;;-3.16;100.00;97536.06;105322;1304;24383;-77
2022/11/30 06:31:50;;;;;;;52.70;28.00;;;;;;;-3.21;100.00;97538.71;105403;1304;22490;-77
2022/11/30 06:34:22;;;;;;;50.20;25.20;;;;;;;-3.20;100.00;97534.66;105349;1305;22461;-77
2022/11/30 06:36:54;;;;;;;49.70;25.90;;;;;;;-3.15;100.00;97529.66;105460;1305;22519;-77
2022/11/30 06:39:25;;;;;;;51.00;25.70;;;;;;;-3.08;100.00;97533.95;105363;1296;22602;-77
2022/11/30 06:41:56;;;;;;;50.40;25.30;;;;;;;-3.02;100.00;97538.27;105507;1294;22608;-77
2022/11/30 06:44:30;;;;;;;48.00;23.30;;;;;;;-3.09;100.00;97543.10;105364;1304;22942;-77
2022/11/30 06:47:01;;;;;;;49.10;24.80;;;;;;;-3.16;100.00;97548.48;105353;1301;22606;-77
2022/11/30 06:49:32;;;;;;;46.70;24.10;;;;;;;-3.20;100.00;97548.23;105368;1280;22488;-77
2022/11/30 06:52:03;;;;;;;48.00;23.70;;;;;;;-3.24;100.00;97550.81;105501;1304;22439;-77
2022/11/30 06:54:35;;;;;;;48.60;25.40;;;;;;;-3.29;100.00;97547.81;105349;1295;22474;-77
2022/11/30 06:57:06;;;;;;;54.60;28.00;;;;;;;-3.30;100.00;97545.67;105434;1296;25300;-77
2022/11/30 06:59:41;;;;;;;50.00;25.80;;;;;;;-3.31;100.00;97548.09;105446;1304;25370;-77
2022/11/30 07:02:14;;;;;;;49.10;23.20;;;;;;;-3.31;100.00;97544.29;105373;1304;22471;-77
2022/11/30 07:04:46;;;;;;;47.00;25.40;;;;;;;-3.35;100.00;97544.77;105371;1284;22503;-77
2022/11/30 07:07:17;;;;;;;50.40;27.90;;;;;;;-3.34;100.00;97545.83;105448;1301;25242;-77
2022/11/30 07:09:49;;;;;;;52.10;28.30;;;;;;;-3.25;100.00;97545.70;105374;1295;24225;-76
2022/11/30 07:12:20;;;;;;;48.10;25.80;;;;;;;-3.14;100.00;97547.59;105368;1304;24087;-77
2022/11/30 07:14:52;;;;;;;52.80;27.00;;;;;;;-3.05;100.00;97544.35;105495;1299;22552;-77
2022/11/30 07:17:26;;;;;;;50.80;25.90;;;;;;;-2.96;100.00;97546.16;105410;1304;22472;-76
2022/11/30 07:19:57;;;;;;;52.40;28.40;;;;;;;-2.89;100.00;97552.67;105323;1283;22597;-77
2022/11/30 07:22:31;;;;;;;51.60;26.80;;;;;;;-2.83;100.00;97555.39;105352;1289;22445;-77
2022/11/30 07:27:51;;;;;;;50.80;26.80;;;;;;;-2.73;100.00;97557.34;105437;1284;22447;-77
2022/11/30 07:30:23;;;;;;;52.80;27.20;;;;;;;-2.71;100.00;97560.77;105356;1296;25423;-77
2022/11/30 07:32:54;;;;;;;48.40;25.40;;;;;;;-2.67;100.00;97568.32;105504;1304;25412;-77
2022/11/30 07:35:25;;;;;;;51.70;26.40;;;;;;;-2.63;100.00;97564.36;105372;1304;22701;-77
2022/11/30 07:37:56;;;;;;;47.90;26.20;;;;;;;-2.59;100.00;97563.66;105402;1304;22530;-77
2022/11/30 07:40:28;;;;;;;50.70;26.70;;;;;;;-2.56;100.00;97563.31;105333;1290;22525;-77
2022/11/30 07:43:00;;;;;;;42.90;25.30;;;;;;;-2.54;100.00;97563.53;105378;1304;24387;-77
2022/11/30 07:45:32;;;;;;;40.70;23.00;;;;;;;-2.54;100.00;97567.36;105428;1290;24267;-77
2022/11/30 07:48:03;;;;;;;48.80;27.50;;;;;;;-2.61;100.00;97569.58;105365;1303;22479;-77
2022/11/30 07:50:35;;;;;;;53.50;25.30;;;;;;;-2.69;100.00;97574.92;105365;1293;22518;-77
2022/11/30 07:53:06;;;;;;;46.20;25.20;;;;;;;-2.68;100.00;97571.23;105366;1305;24285;-77
2022/11/30 07:55:38;;;;;;;46.50;26.40;;;;;;;-2.62;100.00;97571.57;105398;1305;22554;-77
2022/11/30 07:58:10;;;;;;;41.20;22.90;;;;;;;-2.55;100.00;97573.05;105405;1293;25321;-77
2022/11/30 08:00:41;;;;;;;45.00;25.40;;;;;;;-2.60;100.00;97572.69;105398;1305;22979;-77
2022/11/30 08:03:12;;;;;;;41.50;23.90;;;;;;;-2.60;100.00;97572.04;105354;1288;25193;-77
2022/11/30 08:05:45;;;;;;;43.00;24.30;;;;;;;-2.54;100.00;97571.91;105349;1305;22511;-77
2022/11/30 08:08:16;;;;;;;47.20;26.20;;;;;;;-2.48;100.00;97570.86;105318;1296;22477;-77
2022/11/30 08:10:47;;;;;;;50.00;26.30;;;;;;;-2.44;100.00;97571.39;105371;1304;22589;-77
2022/11/30 08:13:19;;;;;;;48.30;27.00;;;;;;;-2.39;100.00;97570.71;105355;1291;22620;-77
2022/11/30 08:15:50;;;;;;;51.80;26.40;;;;;;;-2.37;100.00;97566.02;105465;1297;22611;-77
2022/11/30 08:18:23;;;;;;;45.30;23.90;;;;;;;-2.35;100.00;97572.31;105492;1302;22480;-77
2022/11/30 08:21:00;;;;;;;48.90;26.60;;;;;;;-2.32;100.00;97570.79;105476;1304;22506;-77
2022/11/30 08:23:32;;;;;;;46.70;25.70;;;;;;;-2.30;100.00;97571.27;105355;1305;22479;-77
2022/11/30 08:26:10;;;;;;;44.80;25.60;;;;;;;-2.27;100.00;97571.30;105359;1296;25426;-77
2022/11/30 08:28:42;;;;;;;42.70;24.60;;;;;;;-2.34;100.00;97574.19;105301;1304;22497;-77
2022/11/30 08:31:16;;;;;;;46.70;26.30;;;;;;;-2.40;100.00;97574.26;105386;1302;22493;-75
2022/11/30 08:33:47;;;;;;;44.00;25.40;;;;;;;-2.36;100.00;97580.11;105385;1305;22638;-75
2022/11/30 08:36:22;;;;;;;46.40;25.80;;;;;;;-2.37;100.00;97585.93;105355;1283;22663;-75
2022/11/30 08:38:56;;;;;;;46.90;26.60;;;;;;;-2.34;100.00;97588.41;105354;1303;22539;-75
2022/11/30 08:41:28;;;;;;;44.00;23.70;;;;;;;-2.30;100.00;97590.19;105358;1303;22490;-75
2022/11/30 08:43:59;;;;;;;42.40;23.70;;;;;;;-2.28;100.00;97591.79;105382;1297;22519;-75
2022/11/30 08:46:31;;;;;;;42.30;24.90;;;;;;;-2.24;100.00;97592.06;105414;1287;22509;-75
2022/11/30 08:49:03;;;;;;;35.80;22.20;;;;;;;-2.19;100.00;97592.67;105444;1304;22476;-75
2022/11/30 08:51:34;;;;;;;43.90;23.80;;;;;;;-2.20;100.00;97589.27;105410;1294;22526;-75
2022/11/30 08:54:06;;;;;;;43.40;23.50;;;;;;;-2.23;100.00;97592.30;105388;1304;25244;-76
2022/11/30 08:56:37;;;;;;;43.30;26.00;;;;;;;-2.21;100.00;97591.33;105378;1296;22477;-75
2022/11/30 08:59:09;;;;;;;43.70;25.80;;;;;;;-2.19;100.00;97588.89;105330;1284;22491;-75
2022/11/30 09:01:41;;;;;;;42.00;23.40;;;;;;;-2.13;100.00;97588.56;105374;1283;23188;-76
2022/11/30 09:04:15;;;;;;;42.50;24.60;;;;;;;-2.08;100.00;97586.08;105378;1304;22473;-76
2022/11/30 09:06:46;;;;;;;41.10;25.40;;;;;;;-2.03;100.00;97584.67;105379;1303;24258;-76
2022/11/30 09:09:18;;;;;;;44.50;25.10;;;;;;;-1.99;100.00;97584.31;105320;1296;22545;-75
2022/11/30 09:11:51;;;;;;;39.40;23.50;;;;;;;-1.94;100.00;97585.00;105366;1275;24458;-75
2022/11/30 09:14:23;;;;;;;41.20;22.50;;;;;;;-2.03;100.00;97583.98;105386;1296;22481;-76
2022/11/30 09:16:55;;;;;;;35.90;20.60;;;;;;;-2.16;100.00;97583.52;105420;1297;22519;-76
2022/11/30 09:19:26;;;;;;;39.90;22.50;;;;;;;-2.31;100.00;97591.62;105444;1282;22473;-75
2022/11/30 09:21:58;;;;;;;37.00;21.80;;;;;;;-2.28;100.00;97591.27;105436;1297;22506;-76
2022/11/30 09:24:31;;;;;;;41.90;25.30;;;;;;;-2.21;100.00;97590.36;105467;1285;24651;-75
2022/11/30 09:27:02;;;;;;;40.20;21.80;;;;;;;-2.18;100.00;97585.83;105492;1304;22525;-75
2022/11/30 09:29:34;;;;;;;39.70;22.40;;;;;;;-2.13;100.00;97588.14;105344;1297;22502;-75
2022/11/30 09:32:05;;;;;;;40.10;23.20;;;;;;;-2.21;100.00;97588.80;105372;1297;22793;-75
2022/11/30 09:34:37;;;;;;;37.10;21.90;;;;;;;-2.26;100.00;97588.10;105353;1289;22476;-76
2022/11/30 09:37:11;;;;;;;41.30;23.50;;;;;;;-2.29;100.00;97583.23;105377;1291;25297;-75
2022/11/30 09:39:42;;;;;;;38.00;22.30;;;;;;;-2.33;100.00;97579.02;105333;1289;26412;-75
2022/11/30 09:42:26;;;;;;;38.10;22.50;;;;;;;-2.27;100.00;97576.50;105392;1303;24245;-76
2022/11/30 09:45:03;;;;;;;37.90;20.50;;;;;;;-2.21;100.00;97573.67;105390;1305;22518;-75
2022/11/30 09:47:57;;;;;;;37.00;22.70;;;;;;;-2.33;100.00;97574.89;105347;1304;22548;-75
2022/11/30 09:50:33;;;;;;;39.70;22.40;;;;;;;-2.42;100.00;97571.04;105457;1304;22517;-75
2022/11/30 09:53:12;;;;;;;39.00;21.70;;;;;;;-2.44;100.00;97572.42;105541;1281;22480;-76
2022/11/30 09:55:44;;;;;;;41.20;23.80;;;;;;;-2.54;100.00;97572.56;105361;1288;24242;-75
2022/11/30 09:58:30;;;;;;;39.90;23.40;;;;;;;-2.59;100.00;97573.66;105388;1298;24469;-75
2022/11/30 10:01:03;;;;;;;37.30;20.60;;;;;;;-2.56;100.00;97575.54;105516;1304;22461;-76
2022/11/30 10:03:35;;;;;;;37.70;23.10;;;;;;;-2.56;100.00;97571.22;105386;1299;22460;-76
2022/11/30 10:06:09;;;;;;;41.00;24.10;;;;;;;-2.49;100.00;97569.81;105364;1304;22478;-75
2022/11/30 10:08:57;;;;;;;41.70;22.70;;;;;;;-2.39;100.00;97569.20;105314;1304;23868;-75
2022/11/30 10:11:44;;;;;;;39.60;22.00;;;;;;;-2.44;100.00;97564.46;105527;1301;22527;-75
2022/11/30 10:14:29;;;;;;;42.20;22.40;;;;;;;-2.51;100.00;97565.11;105462;1295;24283;-76
2022/11/30 10:17:09;;;;;;;41.00;22.40;;;;;;;-2.58;100.00;97569.04;105405;1281;22509;-75
2022/11/30 10:19:55;;;;;;;39.00;21.80;;;;;;;-2.64;100.00;97565.77;105352;1304;22503;-76
2022/11/30 10:22:35;;;;;;;36.40;21.60;;;;;;;-2.66;100.00;97565.15;105383;1304;22481;-75
2022/11/30 10:28:18;;;;;;;35.20;18.90;;;;;;;-2.70;100.00;97562.09;105369;1296;22479;-75
2022/11/30 10:30:50;;;;;;;39.00;20.60;;;;;;;-2.70;100.00;97556.13;105338;1303;23880;-75
2022/11/30 10:33:27;;;;;;;35.40;19.40;;;;;;;-2.72;100.00;97550.33;105354;1304;22541;-75
2022/11/30 10:36:03;;;;;;;39.10;22.00;;;;;;;-2.74;100.00;97549.93;105350;1304;22514;-75
2022/11/30 10:38:39;;;;;;;39.30;23.20;;;;;;;-2.74;100.00;97544.52;105363;1305;22479;-76
2022/11/30 10:41:14;;;;;;;37.90;22.50;;;;;;;-2.68;100.00;97541.42;105385;1303;22501;-76
2022/11/30 10:43:49;;;;;;;40.20;24.20;;;;;;;-2.67;100.00;97541.36;105376;1296;22472;-76
2022/11/30 10:46:26;;;;;;;38.70;23.40;;;;;;;-2.66;100.00;97537.64;105423;1290;22864;-76
2022/11/30 10:49:01;;;;;;;38.40;21.60;;;;;;;-2.58;100.00;97543.77;105322;1296;22517;-76
2022/11/30 10:51:33;;;;;;;39.60;23.20;;;;;;;-2.57;100.00;97536.36;105372;1304;22609;-76
2022/11/30 10:54:14;;;;;;;39.50;23.70;;;;;;;-2.51;100.00;97534.90;105378;1296;22538;-76
2022/11/30 10:56:46;;;;;;;38.50;22.90;;;;;;;-2.45;100.00;97534.65;105370;1289;22644;-76
2022/11/30 10:59:23;;;;;;;38.70;23.00;;;;;;;-2.34;100.00;97537.60;105339;1295;23344;-76
2022/11/30 11:01:55;;;;;;;36.80;23.30;;;;;;;-2.25;100.00;97541.03;105383;1299;22540;-76
2022/11/30 11:04:27;;;;;;;35.30;20.50;;;;;;;-2.18;100.00;97542.31;105369;1297;22543;-76
2022/11/30 11:07:07;;;;;;;40.60;24.40;;;;;;;-2.16;100.00;97542.09;105379;1303;22519;-76
2022/11/30 11:09:45;;;;;;;33.10;21.60;;;;;;;-2.14;100.00;97540.80;105316;1305;24495;-76
2022/11/30 11:12:21;;;;;;;35.10;22.40;;;;;;;-2.07;100.00;97538.49;105385;1305;22442;-76
2022/11/30 11:15:15;;;;;;;36.30;22.10;;;;;;;-2.07;100.00;97541.13;105393;1280;22472;-76
2022/11/30 11:17:46;;;;;;;35.00;22.50;;;;;;;-2.14;100.00;97540.16;105377;1290;22547;-76
2022/11/30 11:20:33;;;;;;;38.00;21.90;;;;;;;-2.26;100.00;97538.80;105360;1303;22492;-76
2022/11/30 11:23:05;;;;;;;37.80;21.10;;;;;;;-2.38;100.00;97538.41;105385;1297;22450;-76
2022/11/30 11:25:41;;;;;;;38.30;21.80;;;;;;;-2.45;100.00;97539.33;105494;1304;24256;-76
2022/11/30 11:28:19;;;;;;;37.70;22.10;;;;;;;-2.53;100.00;97538.70;105405;1304;22498;-76
2022/11/30 11:30:52;;;;;;;39.50;24.80;;;;;;;-2.58;100.00;97536.30;105335;1281;22467;-76
2022/11/30 11:33:25;;;;;;;39.60;22.10;;;;;;;-2.61;100.00;97535.16;105386;1304;22807;-76
2022/11/30 11:36:13;;;;;;;38.80;22.40;;;;;;;-2.65;100.00;97539.70;105325;1294;25378;-76